Saturday, November 1, 2014, 6:09 AM EDT

KGED, Georgetown Sussex Co Airport

Location: Georgetown, DE, United States Lat: 38.683
Local Time: 6:09 AM EDT (10:09 GMT) Lon: -75.367
Time Zone: US/Eastern Elev: 52 ft

Show me the last for .
Show Decoded

2014-11-01 05:54 METAR KGED 010954Z AUTO 02009G19KT 4SM RA BR OVC008 11/09 A2969 RMK AO2 CIG
                 005V011 SLP055 P0008 T01110094 $ =
2014-11-01 05:05 METAR KGED 010905Z AUTO 01008KT 7SM -RA OVC009 11/10 A2968 RMK AO2 CIG 006V012
                 P0000 T01110100 $ =
2014-11-01 04:54 METAR KGED 010854Z AUTO 01008KT 6SM RA BR BKN010 OVC014 11/10 A2968 RMK AO2 CIG
                 006V011 SLP051 P0010 60011 T01110100 55018 =
2014-11-01 03:54 METAR KGED 010754Z AUTO 01009KT 5SM RA BR OVC012 11/09 A2968 RMK AO2 RAB12
                 SLP050 P0001 T01110094 =
2014-11-01 02:54 METAR KGED 010654Z AUTO 34005KT 10SM OVC013 11/08 A2971 RMK AO2 RAB0555E44
                 SLP061 P0000 T01060083 =
2014-11-01 02:44 METAR KGED 010644Z AUTO 35005KT 10SM OVC013 11/08 A2972 RMK AO2 RAB0555E44 P0000
                 T01060083 =
2014-11-01 01:54 METAR KGED 010554Z AUTO 36006KT 10SM BKN017 OVC043 10/07 A2973 RMK AO2 RAB07E29
                 SLP068 P0000 60000 T01000067 10111 20089 58022 =
2014-11-01 01:01 METAR KGED 010501Z AUTO 35005KT 10SM BKN023 BKN041 OVC070 09/05 A2975 RMK AO2
                 T00940050 =
2014-11-01 00:54 METAR KGED 010454Z AUTO 34006KT 10SM SCT023 BKN041 BKN070 09/05 A2976 RMK AO2
                 SLP076 T00940050 401330028 =
2014-10-31 22:54 METAR KGED 010254Z AUTO 34004KT 10SM FEW029 SCT037 BKN060 09/06 A2980 RMK AO2
                 SLP090 T00940056 58015 =
2014-10-31 21:54 METAR KGED 010154Z AUTO 36004KT 10SM SCT060 10/05 A2981 RMK AO2 SLP096 T01000050
                 =
2014-10-31 20:54 METAR KGED 010054Z AUTO 01006KT 10SM OVC038 11/05 A2983 RMK AO2 SLP101 T01110050
                 =
2014-10-31 19:54 METAR KGED 312354Z AUTO 01003KT 10SM OVC040 11/05 A2984 RMK AO2 SLP105 T01060050
                 10133 20106 58006 =
2014-10-31 18:54 METAR KGED 312254Z AUTO 35003KT 10SM OVC042 11/04 A2985 RMK AO2 SLP109 T01060044
                 =
2014-10-31 17:54 METAR KGED 312154Z AUTO 01006KT 10SM BKN044 OVC060 11/04 A2985 RMK AO2 SLP110
                 T01110044 =
2014-10-31 16:54 METAR KGED 312054Z AUTO 05008KT 030V090 10SM OVC060 12/05 A2986 RMK AO2 SLP112
                 T01170050 56012 =
2014-10-31 15:54 METAR KGED 311954Z AUTO 01008KT 10SM FEW025 OVC060 12/05 A2986 RMK AO2 SLP113
                 T01170050 =
2014-10-31 14:54 METAR KGED 311854Z AUTO 02008KT 10SM OVC050 12/06 A2988 RMK AO2 SLP117 T01220056
                 =
2014-10-31 13:54 METAR KGED 311754Z AUTO 04009KT 10SM OVC050 13/03 A2990 RMK AO2 SLP124 T01330033
                 10133 20039 58023 =
2014-10-31 12:54 METAR KGED 311654Z AUTO 35007KT 10SM OVC050 13/04 A2992 RMK AO2 SLP132 T01280039
                 =
2014-10-31 11:54 METAR KGED 311554Z AUTO 03009KT 10SM SCT048 12/03 A2995 RMK AO2 SLP143 T01170033
                 =
2014-10-31 10:54 METAR KGED 311454Z AUTO 04008KT 10SM CLR 11/04 A2997 RMK AO2 SLP147 T01060039
                 58010 =
2014-10-31 09:54 METAR KGED 311354Z AUTO 03006KT 10SM CLR 10/04 A2998 RMK AO2 SLP152 T01000044 =
2014-10-31 08:54 METAR KGED 311254Z AUTO 00000KT 10SM CLR 07/04 A2999 RMK AO2 SLP156 T00720039 =
2014-10-31 07:54 METAR KGED 311154Z AUTO 00000KT 10SM CLR 04/02 A2999 RMK AO2 SLP157 T00440022
                 10067 20028 57004 =
2014-10-31 06:54 METAR KGED 311054Z AUTO 00000KT 10SM CLR 04/02 A3000 RMK AO2 SLP157 T00390017 $
                 =

Support USWX by starting your Amazon purchase here.